sensor_id;sensor_type;location;lat;lon;timestamp;P1;durP1;ratioP1;P2;durP2;ratioP2
6757;SDS011;3416;53.074;8.822;2022-12-29T00:01:58;7.18;;;6.20;;
6757;SDS011;3416;53.074;8.822;2022-12-29T00:04:27;8.20;;;5.80;;
6757;SDS011;3416;53.074;8.822;2022-12-29T00:06:54;6.05;;;5.55;;
6757;SDS011;3416;53.074;8.822;2022-12-29T00:09:21;5.80;;;5.15;;
6757;SDS011;3416;53.074;8.822;2022-12-29T00:11:48;6.38;;;5.88;;
6757;SDS011;3416;53.074;8.822;2022-12-29T00:14:15;6.00;;;5.60;;
6757;SDS011;3416;53.074;8.822;2022-12-29T00:17:00;6.97;;;6.40;;
6757;SDS011;3416;53.074;8.822;2022-12-29T00:19:29;6.50;;;5.90;;
6757;SDS011;3416;53.074;8.822;2022-12-29T00:22:14;6.28;;;5.68;;
6757;SDS011;3416;53.074;8.822;2022-12-29T00:24:59;6.35;;;5.82;;
6757;SDS011;3416;53.074;8.822;2022-12-29T00:27:43;5.80;;;5.30;;
6757;SDS011;3416;53.074;8.822;2022-12-29T00:30:28;6.13;;;5.63;;
6757;SDS011;3416;53.074;8.822;2022-12-29T00:33:13;6.47;;;5.97;;
6757;SDS011;3416;53.074;8.822;2022-12-29T00:36:01;7.53;;;6.95;;
6757;SDS011;3416;53.074;8.822;2022-12-29T00:38:30;8.77;;;7.90;;
6757;SDS011;3416;53.074;8.822;2022-12-29T00:41:17;8.05;;;7.25;;
6757;SDS011;3416;53.074;8.822;2022-12-29T00:44:02;7.78;;;6.82;;
6757;SDS011;3416;53.074;8.822;2022-12-29T00:46:32;9.48;;;7.80;;
6757;SDS011;3416;53.074;8.822;2022-12-29T00:49:00;8.18;;;7.57;;
6757;SDS011;3416;53.074;8.822;2022-12-29T00:51:47;8.20;;;7.50;;
6757;SDS011;3416;53.074;8.822;2022-12-29T00:54:14;8.80;;;7.97;;
6757;SDS011;3416;53.074;8.822;2022-12-29T00:56:41;8.52;;;7.63;;
6757;SDS011;3416;53.074;8.822;2022-12-29T00:59:09;9.95;;;9.05;;
6757;SDS011;3416;53.074;8.822;2022-12-29T01:01:37;8.82;;;8.02;;
6757;SDS011;3416;53.074;8.822;2022-12-29T01:04:05;10.18;;;9.38;;
6757;SDS011;3416;53.074;8.822;2022-12-29T01:06:32;9.00;;;8.20;;
6757;SDS011;3416;53.074;8.822;2022-12-29T01:09:02;9.15;;;8.25;;
6757;SDS011;3416;53.074;8.822;2022-12-29T01:11:48;9.25;;;8.35;;
6757;SDS011;3416;53.074;8.822;2022-12-29T01:14:15;9.68;;;8.18;;
6757;SDS011;3416;53.074;8.822;2022-12-29T01:16:42;7.25;;;6.65;;
6757;SDS011;3416;53.074;8.822;2022-12-29T01:19:09;7.40;;;6.68;;
6757;SDS011;3416;53.074;8.822;2022-12-29T01:21:36;7.78;;;7.18;;
6757;SDS011;3416;53.074;8.822;2022-12-29T01:24:08;8.05;;;7.35;;
6757;SDS011;3416;53.074;8.822;2022-12-29T01:26:35;7.10;;;6.50;;
6757;SDS011;3416;53.074;8.822;2022-12-29T01:29:02;7.55;;;6.95;;
6757;SDS011;3416;53.074;8.822;2022-12-29T01:31:29;7.90;;;7.10;;
6757;SDS011;3416;53.074;8.822;2022-12-29T01:33:56;6.20;;;5.70;;
6757;SDS011;3416;53.074;8.822;2022-12-29T01:36:23;6.63;;;6.15;;
6757;SDS011;3416;53.074;8.822;2022-12-29T01:38:50;6.35;;;5.85;;
6757;SDS011;3416;53.074;8.822;2022-12-29T01:41:19;7.03;;;6.43;;
6757;SDS011;3416;53.074;8.822;2022-12-29T01:46:45;6.80;;;6.18;;
6757;SDS011;3416;53.074;8.822;2022-12-29T01:49:16;7.00;;;6.40;;
6757;SDS011;3416;53.074;8.822;2022-12-29T01:51:47;7.72;;;7.07;;
6757;SDS011;3416;53.074;8.822;2022-12-29T01:54:18;7.35;;;6.80;;
6757;SDS011;3416;53.074;8.822;2022-12-29T01:56:52;7.00;;;6.50;;
6757;SDS011;3416;53.074;8.822;2022-12-29T01:59:22;6.25;;;5.68;;
6757;SDS011;3416;53.074;8.822;2022-12-29T02:01:54;7.50;;;6.80;;
6757;SDS011;3416;53.074;8.822;2022-12-29T02:04:21;7.18;;;6.47;;
6757;SDS011;3416;53.074;8.822;2022-12-29T02:06:51;7.70;;;7.00;;
6757;SDS011;3416;53.074;8.822;2022-12-29T02:09:22;6.97;;;6.38;;
6757;SDS011;3416;53.074;8.822;2022-12-29T02:11:49;7.35;;;6.75;;
6757;SDS011;3416;53.074;8.822;2022-12-29T02:14:18;7.00;;;6.38;;
6757;SDS011;3416;53.074;8.822;2022-12-29T02:16:57;6.60;;;6.10;;
6757;SDS011;3416;53.074;8.822;2022-12-29T02:19:41;7.88;;;7.28;;
6757;SDS011;3416;53.074;8.822;2022-12-29T02:22:32;6.15;;;5.65;;
6757;SDS011;3416;53.074;8.822;2022-12-29T02:25:20;6.22;;;5.80;;
6757;SDS011;3416;53.074;8.822;2022-12-29T02:28:12;6.18;;;5.68;;
6757;SDS011;3416;53.074;8.822;2022-12-29T02:30:58;6.72;;;6.15;;
6757;SDS011;3416;53.074;8.822;2022-12-29T02:33:36;8.60;;;5.80;;
6757;SDS011;3416;53.074;8.822;2022-12-29T02:36:19;6.43;;;5.93;;
6757;SDS011;3416;53.074;8.822;2022-12-29T02:38:55;5.97;;;5.57;;
6757;SDS011;3416;53.074;8.822;2022-12-29T02:41:46;6.03;;;5.57;;
6757;SDS011;3416;53.074;8.822;2022-12-29T02:44:22;6.55;;;5.85;;
6757;SDS011;3416;53.074;8.822;2022-12-29T02:46:56;6.40;;;5.90;;
6757;SDS011;3416;53.074;8.822;2022-12-29T02:49:30;5.53;;;5.13;;
6757;SDS011;3416;53.074;8.822;2022-12-29T02:52:03;6.40;;;5.80;;
6757;SDS011;3416;53.074;8.822;2022-12-29T02:54:33;6.40;;;5.85;;
6757;SDS011;3416;53.074;8.822;2022-12-29T02:57:11;6.93;;;6.40;;
6757;SDS011;3416;53.074;8.822;2022-12-29T02:59:40;6.70;;;6.20;;
6757;SDS011;3416;53.074;8.822;2022-12-29T03:02:13;6.00;;;5.60;;
6757;SDS011;3416;53.074;8.822;2022-12-29T03:07:56;6.45;;;5.95;;
6757;SDS011;3416;53.074;8.822;2022-12-29T03:10:32;5.97;;;5.47;;
6757;SDS011;3416;53.074;8.822;2022-12-29T03:13:10;5.20;;;4.80;;
6757;SDS011;3416;53.074;8.822;2022-12-29T03:16:04;5.00;;;4.70;;
6757;SDS011;3416;53.074;8.822;2022-12-29T03:18:39;5.35;;;4.85;;
6757;SDS011;3416;53.074;8.822;2022-12-29T03:21:11;5.25;;;4.85;;
6757;SDS011;3416;53.074;8.822;2022-12-29T03:23:42;4.10;;;3.80;;
6757;SDS011;3416;53.074;8.822;2022-12-29T03:26:14;3.25;;;3.05;;
6757;SDS011;3416;53.074;8.822;2022-12-29T03:28:45;3.10;;;2.90;;
6757;SDS011;3416;53.074;8.822;2022-12-29T03:31:16;4.07;;;3.78;;
6757;SDS011;3416;53.074;8.822;2022-12-29T03:33:46;5.55;;;2.90;;
6757;SDS011;3416;53.074;8.822;2022-12-29T03:36:20;3.50;;;3.20;;
6757;SDS011;3416;53.074;8.822;2022-12-29T03:38:53;4.07;;;3.78;;
6757;SDS011;3416;53.074;8.822;2022-12-29T03:41:26;3.40;;;3.10;;
6757;SDS011;3416;53.074;8.822;2022-12-29T03:43:56;2.88;;;2.67;;
6757;SDS011;3416;53.074;8.822;2022-12-29T03:46:23;3.17;;;2.97;;
6757;SDS011;3416;53.074;8.822;2022-12-29T03:48:52;2.92;;;2.72;;
6757;SDS011;3416;53.074;8.822;2022-12-29T03:51:19;2.85;;;2.65;;
6757;SDS011;3416;53.074;8.822;2022-12-29T03:53:46;2.97;;;2.65;;
6757;SDS011;3416;53.074;8.822;2022-12-29T03:56:12;3.92;;;3.63;;
6757;SDS011;3416;53.074;8.822;2022-12-29T03:58:39;2.78;;;2.58;;
6757;SDS011;3416;53.074;8.822;2022-12-29T04:01:06;3.40;;;3.10;;
6757;SDS011;3416;53.074;8.822;2022-12-29T04:03:34;3.03;;;2.83;;
6757;SDS011;3416;53.074;8.822;2022-12-29T04:06:02;3.17;;;2.88;;
6757;SDS011;3416;53.074;8.822;2022-12-29T04:08:29;4.07;;;3.78;;
6757;SDS011;3416;53.074;8.822;2022-12-29T04:10:56;4.70;;;4.30;;
6757;SDS011;3416;53.074;8.822;2022-12-29T04:13:23;4.00;;;3.70;;
6757;SDS011;3416;53.074;8.822;2022-12-29T04:15:50;7.80;;;7.10;;
6757;SDS011;3416;53.074;8.822;2022-12-29T04:18:18;5.70;;;5.20;;
6757;SDS011;3416;53.074;8.822;2022-12-29T04:20:45;6.20;;;5.70;;
6757;SDS011;3416;53.074;8.822;2022-12-29T04:23:29;4.90;;;4.50;;
6757;SDS011;3416;53.074;8.822;2022-12-29T04:25:57;6.05;;;5.55;;
6757;SDS011;3416;53.074;8.822;2022-12-29T04:28:24;6.63;;;6.13;;
6757;SDS011;3416;53.074;8.822;2022-12-29T04:30:51;6.07;;;5.57;;
6757;SDS011;3416;53.074;8.822;2022-12-29T04:33:18;6.53;;;6.03;;
6757;SDS011;3416;53.074;8.822;2022-12-29T04:35:46;6.07;;;5.57;;
6757;SDS011;3416;53.074;8.822;2022-12-29T04:38:13;5.88;;;5.38;;
6757;SDS011;3416;53.074;8.822;2022-12-29T04:40:42;4.97;;;4.68;;
6757;SDS011;3416;53.074;8.822;2022-12-29T04:43:09;5.45;;;5.05;;
6757;SDS011;3416;53.074;8.822;2022-12-29T04:45:37;6.05;;;5.45;;
6757;SDS011;3416;53.074;8.822;2022-12-29T04:48:05;5.72;;;5.32;;
6757;SDS011;3416;53.074;8.822;2022-12-29T04:50:32;6.13;;;5.55;;
6757;SDS011;3416;53.074;8.822;2022-12-29T04:52:59;5.40;;;5.00;;
6757;SDS011;3416;53.074;8.822;2022-12-29T04:55:26;4.63;;;4.32;;
6757;SDS011;3416;53.074;8.822;2022-12-29T04:57:54;9.60;;;4.38;;
6757;SDS011;3416;53.074;8.822;2022-12-29T05:00:21;4.65;;;4.30;;
6757;SDS011;3416;53.074;8.822;2022-12-29T05:02:48;5.15;;;3.88;;
6757;SDS011;3416;53.074;8.822;2022-12-29T05:05:15;4.60;;;4.20;;
6757;SDS011;3416;53.074;8.822;2022-12-29T05:07:42;3.70;;;3.40;;
6757;SDS011;3416;53.074;8.822;2022-12-29T05:10:09;4.22;;;3.83;;
6757;SDS011;3416;53.074;8.822;2022-12-29T05:12:37;4.25;;;3.95;;
6757;SDS011;3416;53.074;8.822;2022-12-29T05:15:07;4.63;;;4.32;;
6757;SDS011;3416;53.074;8.822;2022-12-29T05:17:36;4.70;;;4.40;;
6757;SDS011;3416;53.074;8.822;2022-12-29T05:20:03;7.70;;;4.68;;
6757;SDS011;3416;53.074;8.822;2022-12-29T05:22:31;3.30;;;3.00;;
6757;SDS011;3416;53.074;8.822;2022-12-29T05:24:58;2.95;;;2.75;;
6757;SDS011;3416;53.074;8.822;2022-12-29T05:27:25;3.38;;;2.30;;
6757;SDS011;3416;53.074;8.822;2022-12-29T05:29:52;2.70;;;2.40;;
6757;SDS011;3416;53.074;8.822;2022-12-29T05:32:21;2.60;;;1.95;;
6757;SDS011;3416;53.074;8.822;2022-12-29T05:34:48;3.80;;;1.55;;
6757;SDS011;3416;53.074;8.822;2022-12-29T05:37:15;1.80;;;1.70;;
6757;SDS011;3416;53.074;8.822;2022-12-29T05:39:41;1.45;;;1.35;;
6757;SDS011;3416;53.074;8.822;2022-12-29T05:42:08;2.15;;;1.95;;
6757;SDS011;3416;53.074;8.822;2022-12-29T05:44:35;3.83;;;3.53;;
6757;SDS011;3416;53.074;8.822;2022-12-29T05:47:02;4.55;;;3.30;;
6757;SDS011;3416;53.074;8.822;2022-12-29T05:49:30;4.72;;;3.83;;
6757;SDS011;3416;53.074;8.822;2022-12-29T05:51:58;3.90;;;3.60;;
6757;SDS011;3416;53.074;8.822;2022-12-29T05:54:25;4.20;;;3.80;;
6757;SDS011;3416;53.074;8.822;2022-12-29T05:56:52;7.10;;;4.80;;
6757;SDS011;3416;53.074;8.822;2022-12-29T05:59:19;4.47;;;4.07;;
6757;SDS011;3416;53.074;8.822;2022-12-29T06:01:46;5.03;;;4.30;;
6757;SDS011;3416;53.074;8.822;2022-12-29T06:04:13;4.00;;;3.70;;
6757;SDS011;3416;53.074;8.822;2022-12-29T06:06:41;4.80;;;4.35;;
6757;SDS011;3416;53.074;8.822;2022-12-29T06:09:09;3.78;;;3.47;;
6757;SDS011;3416;53.074;8.822;2022-12-29T06:11:36;6.38;;;3.35;;
6757;SDS011;3416;53.074;8.822;2022-12-29T06:14:03;4.05;;;3.05;;
6757;SDS011;3416;53.074;8.822;2022-12-29T06:16:30;3.67;;;3.30;;
6757;SDS011;3416;53.074;8.822;2022-12-29T06:18:57;3.63;;;3.22;;
6757;SDS011;3416;53.074;8.822;2022-12-29T06:21:24;3.55;;;3.22;;
6757;SDS011;3416;53.074;8.822;2022-12-29T06:23:52;6.47;;;3.45;;
6757;SDS011;3416;53.074;8.822;2022-12-29T06:26:19;4.60;;;3.50;;
6757;SDS011;3416;53.074;8.822;2022-12-29T06:28:46;3.92;;;3.65;;
6757;SDS011;3416;53.074;8.822;2022-12-29T06:31:13;2.92;;;2.72;;
6757;SDS011;3416;53.074;8.822;2022-12-29T06:33:40;3.65;;;3.35;;
6757;SDS011;3416;53.074;8.822;2022-12-29T06:36:07;5.30;;;3.40;;
6757;SDS011;3416;53.074;8.822;2022-12-29T06:38:34;2.92;;;2.60;;
6757;SDS011;3416;53.074;8.822;2022-12-29T06:41:03;3.92;;;2.95;;
6757;SDS011;3416;53.074;8.822;2022-12-29T06:43:30;4.20;;;3.13;;
6757;SDS011;3416;53.074;8.822;2022-12-29T06:45:57;4.22;;;3.67;;
6757;SDS011;3416;53.074;8.822;2022-12-29T06:48:24;3.88;;;3.10;;
6757;SDS011;3416;53.074;8.822;2022-12-29T06:50:51;3.53;;;3.20;;
6757;SDS011;3416;53.074;8.822;2022-12-29T06:53:18;4.57;;;3.75;;
6757;SDS011;3416;53.074;8.822;2022-12-29T06:55:45;4.13;;;3.72;;
6757;SDS011;3416;53.074;8.822;2022-12-29T06:58:13;5.00;;;4.20;;
6757;SDS011;3416;53.074;8.822;2022-12-29T07:00:40;6.18;;;4.20;;
6757;SDS011;3416;53.074;8.822;2022-12-29T07:03:07;6.93;;;5.10;;
6757;SDS011;3416;53.074;8.822;2022-12-29T07:05:36;6.45;;;4.60;;
6757;SDS011;3416;53.074;8.822;2022-12-29T07:08:03;5.80;;;5.18;;
6757;SDS011;3416;53.074;8.822;2022-12-29T07:10:30;6.15;;;4.80;;
6757;SDS011;3416;53.074;8.822;2022-12-29T07:12:57;5.35;;;4.90;;
6757;SDS011;3416;53.074;8.822;2022-12-29T07:15:26;5.38;;;4.20;;
6757;SDS011;3416;53.074;8.822;2022-12-29T07:17:53;5.22;;;4.35;;
6757;SDS011;3416;53.074;8.822;2022-12-29T07:20:19;6.13;;;3.80;;
6757;SDS011;3416;53.074;8.822;2022-12-29T07:22:46;3.33;;;3.00;;
6757;SDS011;3416;53.074;8.822;2022-12-29T07:25:13;3.80;;;2.53;;
6757;SDS011;3416;53.074;8.822;2022-12-29T07:27:40;2.50;;;1.98;;
6757;SDS011;3416;53.074;8.822;2022-12-29T07:30:07;4.57;;;2.65;;
6757;SDS011;3416;53.074;8.822;2022-12-29T07:32:36;3.47;;;2.38;;
6757;SDS011;3416;53.074;8.822;2022-12-29T07:35:03;4.40;;;2.70;;
6757;SDS011;3416;53.074;8.822;2022-12-29T07:37:31;4.53;;;1.70;;
6757;SDS011;3416;53.074;8.822;2022-12-29T07:39:58;3.72;;;1.83;;
6757;SDS011;3416;53.074;8.822;2022-12-29T07:42:29;2.50;;;1.90;;
6757;SDS011;3416;53.074;8.822;2022-12-29T07:45:02;2.15;;;1.55;;
6757;SDS011;3416;53.074;8.822;2022-12-29T07:47:30;4.90;;;1.50;;
6757;SDS011;3416;53.074;8.822;2022-12-29T07:49:58;1.48;;;1.38;;
6757;SDS011;3416;53.074;8.822;2022-12-29T07:52:26;5.60;;;2.00;;
6757;SDS011;3416;53.074;8.822;2022-12-29T07:54:53;5.47;;;1.40;;
6757;SDS011;3416;53.074;8.822;2022-12-29T07:57:20;2.65;;;1.90;;
6757;SDS011;3416;53.074;8.822;2022-12-29T07:59:46;2.25;;;1.40;;
6757;SDS011;3416;53.074;8.822;2022-12-29T08:02:13;7.32;;;1.60;;
6757;SDS011;3416;53.074;8.822;2022-12-29T08:04:40;1.65;;;1.15;;
6757;SDS011;3416;53.074;8.822;2022-12-29T08:07:08;3.47;;;1.20;;
6757;SDS011;3416;53.074;8.822;2022-12-29T08:09:35;4.47;;;2.50;;
6757;SDS011;3416;53.074;8.822;2022-12-29T08:12:02;3.33;;;1.52;;
6757;SDS011;3416;53.074;8.822;2022-12-29T08:14:29;3.55;;;1.50;;
6757;SDS011;3416;53.074;8.822;2022-12-29T08:16:56;4.05;;;1.50;;
6757;SDS011;3416;53.074;8.822;2022-12-29T08:19:23;2.85;;;1.42;;
6757;SDS011;3416;53.074;8.822;2022-12-29T08:21:50;5.40;;;1.55;;
6757;SDS011;3416;53.074;8.822;2022-12-29T08:24:19;5.13;;;2.30;;
6757;SDS011;3416;53.074;8.822;2022-12-29T08:26:46;4.28;;;2.63;;
6757;SDS011;3416;53.074;8.822;2022-12-29T08:29:13;5.15;;;1.40;;
6757;SDS011;3416;53.074;8.822;2022-12-29T08:31:40;2.97;;;1.20;;
6757;SDS011;3416;53.074;8.822;2022-12-29T08:34:06;5.63;;;1.40;;
6757;SDS011;3416;53.074;8.822;2022-12-29T08:36:33;3.00;;;1.70;;
6757;SDS011;3416;53.074;8.822;2022-12-29T08:39:00;2.63;;;1.20;;
6757;SDS011;3416;53.074;8.822;2022-12-29T08:41:28;7.15;;;1.75;;
6757;SDS011;3416;53.074;8.822;2022-12-29T08:43:55;8.10;;;1.50;;
6757;SDS011;3416;53.074;8.822;2022-12-29T08:46:22;5.60;;;1.55;;
6757;SDS011;3416;53.074;8.822;2022-12-29T08:48:49;4.07;;;2.25;;
6757;SDS011;3416;53.074;8.822;2022-12-29T08:51:16;3.95;;;1.27;;
6757;SDS011;3416;53.074;8.822;2022-12-29T08:53:43;4.43;;;1.50;;
6757;SDS011;3416;53.074;8.822;2022-12-29T08:56:11;4.15;;;1.20;;
6757;SDS011;3416;53.074;8.822;2022-12-29T08:58:39;3.25;;;1.55;;
6757;SDS011;3416;53.074;8.822;2022-12-29T09:01:08;2.90;;;2.22;;
6757;SDS011;3416;53.074;8.822;2022-12-29T09:03:36;2.88;;;1.77;;
6757;SDS011;3416;53.074;8.822;2022-12-29T09:06:03;6.95;;;1.83;;
6757;SDS011;3416;53.074;8.822;2022-12-29T09:08:29;3.60;;;1.48;;
6757;SDS011;3416;53.074;8.822;2022-12-29T09:11:04;6.35;;;1.50;;
6757;SDS011;3416;53.074;8.822;2022-12-29T09:13:33;4.43;;;1.63;;
6757;SDS011;3416;53.074;8.822;2022-12-29T09:16:01;3.63;;;1.95;;
6757;SDS011;3416;53.074;8.822;2022-12-29T09:18:28;3.22;;;1.40;;
6757;SDS011;3416;53.074;8.822;2022-12-29T09:20:56;10.10;;;1.95;;
6757;SDS011;3416;53.074;8.822;2022-12-29T09:23:23;7.97;;;2.20;;
6757;SDS011;3416;53.074;8.822;2022-12-29T09:25:50;3.92;;;1.13;;
6757;SDS011;3416;53.074;8.822;2022-12-29T09:28:18;5.70;;;1.92;;
6757;SDS011;3416;53.074;8.822;2022-12-29T09:30:45;3.35;;;1.50;;
6757;SDS011;3416;53.074;8.822;2022-12-29T09:33:13;4.97;;;1.27;;
6757;SDS011;3416;53.074;8.822;2022-12-29T09:35:41;7.32;;;2.40;;
6757;SDS011;3416;53.074;8.822;2022-12-29T09:38:08;5.80;;;2.42;;
6757;SDS011;3416;53.074;8.822;2022-12-29T09:40:35;2.20;;;1.40;;
6757;SDS011;3416;53.074;8.822;2022-12-29T09:43:11;3.90;;;2.03;;
6757;SDS011;3416;53.074;8.822;2022-12-29T09:45:54;4.28;;;1.83;;
6757;SDS011;3416;53.074;8.822;2022-12-29T09:48:30;6.90;;;2.35;;
6757;SDS011;3416;53.074;8.822;2022-12-29T09:51:10;2.15;;;1.20;;
6757;SDS011;3416;53.074;8.822;2022-12-29T09:53:42;5.18;;;1.75;;
6757;SDS011;3416;53.074;8.822;2022-12-29T09:56:11;6.85;;;1.52;;
6757;SDS011;3416;53.074;8.822;2022-12-29T09:58:42;2.35;;;1.30;;
6757;SDS011;3416;53.074;8.822;2022-12-29T10:01:17;9.35;;;1.98;;
6757;SDS011;3416;53.074;8.822;2022-12-29T10:03:56;2.92;;;1.30;;
6757;SDS011;3416;53.074;8.822;2022-12-29T10:06:25;4.55;;;1.40;;
6757;SDS011;3416;53.074;8.822;2022-12-29T10:09:01;4.45;;;1.50;;
6757;SDS011;3416;53.074;8.822;2022-12-29T10:11:41;3.88;;;1.60;;
6757;SDS011;3416;53.074;8.822;2022-12-29T10:14:27;8.13;;;1.80;;
6757;SDS011;3416;53.074;8.822;2022-12-29T10:17:10;3.05;;;1.70;;
6757;SDS011;3416;53.074;8.822;2022-12-29T10:19:53;4.53;;;1.42;;
6757;SDS011;3416;53.074;8.822;2022-12-29T10:22:37;9.25;;;3.45;;
6757;SDS011;3416;53.074;8.822;2022-12-29T10:25:15;7.00;;;1.52;;
6757;SDS011;3416;53.074;8.822;2022-12-29T10:27:46;3.47;;;1.45;;
6757;SDS011;3416;53.074;8.822;2022-12-29T10:30:14;1.40;;;1.30;;
6757;SDS011;3416;53.074;8.822;2022-12-29T10:32:44;5.93;;;1.88;;
6757;SDS011;3416;53.074;8.822;2022-12-29T10:35:16;6.93;;;1.40;;
6757;SDS011;3416;53.074;8.822;2022-12-29T10:37:47;1.90;;;0.90;;
6757;SDS011;3416;53.074;8.822;2022-12-29T10:40:19;3.17;;;1.65;;
6757;SDS011;3416;53.074;8.822;2022-12-29T10:42:52;1.90;;;1.17;;
6757;SDS011;3416;53.074;8.822;2022-12-29T10:45:21;1.88;;;0.95;;
6757;SDS011;3416;53.074;8.822;2022-12-29T10:47:52;2.22;;;0.95;;
6757;SDS011;3416;53.074;8.822;2022-12-29T10:50:24;4.05;;;1.13;;
6757;SDS011;3416;53.074;8.822;2022-12-29T10:52:52;4.63;;;1.10;;
6757;SDS011;3416;53.074;8.822;2022-12-29T10:55:22;1.55;;;0.95;;
6757;SDS011;3416;53.074;8.822;2022-12-29T10:57:53;4.57;;;1.25;;
6757;SDS011;3416;53.074;8.822;2022-12-29T11:00:23;2.92;;;1.30;;
6757;SDS011;3416;53.074;8.822;2022-12-29T11:02:58;4.47;;;1.40;;
6757;SDS011;3416;53.074;8.822;2022-12-29T11:05:42;3.65;;;1.33;;
6757;SDS011;3416;53.074;8.822;2022-12-29T11:08:16;5.10;;;2.30;;
6757;SDS011;3416;53.074;8.822;2022-12-29T11:10:45;6.03;;;1.90;;
6757;SDS011;3416;53.074;8.822;2022-12-29T11:13:24;3.75;;;1.50;;
6757;SDS011;3416;53.074;8.822;2022-12-29T11:15:53;8.25;;;2.58;;
6757;SDS011;3416;53.074;8.822;2022-12-29T11:18:21;6.88;;;2.25;;
6757;SDS011;3416;53.074;8.822;2022-12-29T11:20:51;2.38;;;1.30;;
6757;SDS011;3416;53.074;8.822;2022-12-29T11:23:22;3.58;;;2.00;;
6757;SDS011;3416;53.074;8.822;2022-12-29T11:28:39;3.33;;;1.63;;
6757;SDS011;3416;53.074;8.822;2022-12-29T11:31:08;8.60;;;1.35;;
6757;SDS011;3416;53.074;8.822;2022-12-29T11:33:36;9.15;;;2.10;;
6757;SDS011;3416;53.074;8.822;2022-12-29T11:36:06;5.80;;;1.90;;
6757;SDS011;3416;53.074;8.822;2022-12-29T11:38:39;7.40;;;2.05;;
6757;SDS011;3416;53.074;8.822;2022-12-29T11:41:13;6.85;;;1.98;;
6757;SDS011;3416;53.074;8.822;2022-12-29T11:43:47;5.93;;;1.75;;
6757;SDS011;3416;53.074;8.822;2022-12-29T11:46:14;7.60;;;1.80;;
6757;SDS011;3416;53.074;8.822;2022-12-29T11:48:45;6.25;;;1.80;;
6757;SDS011;3416;53.074;8.822;2022-12-29T11:51:14;5.82;;;1.52;;
6757;SDS011;3416;53.074;8.822;2022-12-29T11:53:49;6.85;;;2.30;;
6757;SDS011;3416;53.074;8.822;2022-12-29T11:56:22;9.80;;;2.60;;
6757;SDS011;3416;53.074;8.822;2022-12-29T12:01:50;7.25;;;1.38;;
6757;SDS011;3416;53.074;8.822;2022-12-29T12:04:19;4.30;;;1.73;;
6757;SDS011;3416;53.074;8.822;2022-12-29T12:06:53;6.97;;;1.70;;
6757;SDS011;3416;53.074;8.822;2022-12-29T12:09:27;5.05;;;1.77;;
6757;SDS011;3416;53.074;8.822;2022-12-29T12:11:58;3.97;;;2.40;;
6757;SDS011;3416;53.074;8.822;2022-12-29T12:14:27;6.65;;;2.15;;
6757;SDS011;3416;53.074;8.822;2022-12-29T12:16:59;5.10;;;2.05;;
6757;SDS011;3416;53.074;8.822;2022-12-29T12:19:31;4.00;;;1.85;;
6757;SDS011;3416;53.074;8.822;2022-12-29T12:22:03;4.88;;;2.55;;
6757;SDS011;3416;53.074;8.822;2022-12-29T12:24:37;5.50;;;1.90;;
6757;SDS011;3416;53.074;8.822;2022-12-29T12:27:10;5.88;;;2.10;;
6757;SDS011;3416;53.074;8.822;2022-12-29T12:29:42;8.90;;;2.78;;
6757;SDS011;3416;53.074;8.822;2022-12-29T12:32:14;8.07;;;2.00;;
6757;SDS011;3416;53.074;8.822;2022-12-29T12:34:45;7.95;;;1.75;;
6757;SDS011;3416;53.074;8.822;2022-12-29T12:37:26;3.40;;;1.30;;
6757;SDS011;3416;53.074;8.822;2022-12-29T12:46:06;4.63;;;2.15;;
6757;SDS011;3416;53.074;8.822;2022-12-29T12:49:07;4.30;;;1.70;;
6757;SDS011;3416;53.074;8.822;2022-12-29T12:51:51;8.98;;;1.73;;
6757;SDS011;3416;53.074;8.822;2022-12-29T12:54:33;4.78;;;2.13;;
6757;SDS011;3416;53.074;8.822;2022-12-29T12:57:13;2.35;;;1.08;;
6757;SDS011;3416;53.074;8.822;2022-12-29T13:00:11;10.55;;;1.95;;
6757;SDS011;3416;53.074;8.822;2022-12-29T13:02:46;4.10;;;2.28;;
6757;SDS011;3416;53.074;8.822;2022-12-29T13:05:35;4.32;;;1.35;;
6757;SDS011;3416;53.074;8.822;2022-12-29T13:08:21;5.40;;;1.40;;
6757;SDS011;3416;53.074;8.822;2022-12-29T13:11:18;2.47;;;1.02;;
6757;SDS011;3416;53.074;8.822;2022-12-29T13:13:57;2.05;;;1.30;;
6757;SDS011;3416;53.074;8.822;2022-12-29T13:16:32;5.93;;;1.73;;
6757;SDS011;3416;53.074;8.822;2022-12-29T13:19:08;2.10;;;1.08;;
6757;SDS011;3416;53.074;8.822;2022-12-29T13:21:48;5.65;;;1.65;;
6757;SDS011;3416;53.074;8.822;2022-12-29T13:24:23;5.97;;;2.00;;
6757;SDS011;3416;53.074;8.822;2022-12-29T13:27:00;6.43;;;1.17;;
6757;SDS011;3416;53.074;8.822;2022-12-29T13:29:38;6.35;;;1.73;;
6757;SDS011;3416;53.074;8.822;2022-12-29T13:32:14;3.15;;;1.10;;
6757;SDS011;3416;53.074;8.822;2022-12-29T13:34:54;4.40;;;1.98;;
6757;SDS011;3416;53.074;8.822;2022-12-29T13:37:33;5.85;;;1.90;;
6757;SDS011;3416;53.074;8.822;2022-12-29T13:40:10;2.72;;;1.50;;
6757;SDS011;3416;53.074;8.822;2022-12-29T13:42:43;4.82;;;1.92;;
6757;SDS011;3416;53.074;8.822;2022-12-29T13:45:13;2.42;;;1.35;;
6757;SDS011;3416;53.074;8.822;2022-12-29T13:47:44;6.43;;;1.70;;
6757;SDS011;3416;53.074;8.822;2022-12-29T13:50:18;3.83;;;1.80;;
6757;SDS011;3416;53.074;8.822;2022-12-29T13:52:49;3.10;;;1.35;;
6757;SDS011;3416;53.074;8.822;2022-12-29T13:55:24;4.15;;;1.70;;
6757;SDS011;3416;53.074;8.822;2022-12-29T13:57:57;6.57;;;1.27;;
6757;SDS011;3416;53.074;8.822;2022-12-29T14:00:31;2.58;;;1.50;;
6757;SDS011;3416;53.074;8.822;2022-12-29T14:03:20;5.68;;;1.98;;
6757;SDS011;3416;53.074;8.822;2022-12-29T14:06:03;3.85;;;1.38;;
6757;SDS011;3416;53.074;8.822;2022-12-29T14:08:38;11.93;;;3.17;;
6757;SDS011;3416;53.074;8.822;2022-12-29T14:11:07;3.15;;;1.13;;
6757;SDS011;3416;53.074;8.822;2022-12-29T14:13:38;4.45;;;1.45;;
6757;SDS011;3416;53.074;8.822;2022-12-29T14:16:07;9.75;;;1.85;;
6757;SDS011;3416;53.074;8.822;2022-12-29T14:18:47;2.22;;;1.00;;
6757;SDS011;3416;53.074;8.822;2022-12-29T14:21:17;2.97;;;1.65;;
6757;SDS011;3416;53.074;8.822;2022-12-29T14:23:47;8.57;;;1.50;;
6757;SDS011;3416;53.074;8.822;2022-12-29T14:26:16;6.63;;;2.00;;
6757;SDS011;3416;53.074;8.822;2022-12-29T14:28:47;3.33;;;1.25;;
6757;SDS011;3416;53.074;8.822;2022-12-29T14:31:34;12.10;;;2.10;;
6757;SDS011;3416;53.074;8.822;2022-12-29T14:34:15;9.77;;;2.80;;
6757;SDS011;3416;53.074;8.822;2022-12-29T14:36:54;7.45;;;2.30;;
6757;SDS011;3416;53.074;8.822;2022-12-29T14:39:32;7.68;;;2.20;;
6757;SDS011;3416;53.074;8.822;2022-12-29T14:42:03;3.80;;;1.80;;
6757;SDS011;3416;53.074;8.822;2022-12-29T14:44:34;1.88;;;1.20;;
6757;SDS011;3416;53.074;8.822;2022-12-29T14:47:11;4.93;;;1.58;;
6757;SDS011;3416;53.074;8.822;2022-12-29T14:49:44;5.43;;;2.10;;
6757;SDS011;3416;53.074;8.822;2022-12-29T14:52:16;5.63;;;2.35;;
6757;SDS011;3416;53.074;8.822;2022-12-29T14:54:50;4.13;;;1.85;;
6757;SDS011;3416;53.074;8.822;2022-12-29T14:57:20;5.28;;;2.65;;
6757;SDS011;3416;53.074;8.822;2022-12-29T14:59:56;7.20;;;1.98;;
6757;SDS011;3416;53.074;8.822;2022-12-29T15:02:31;6.90;;;3.10;;
6757;SDS011;3416;53.074;8.822;2022-12-29T15:05:03;5.05;;;2.70;;
6757;SDS011;3416;53.074;8.822;2022-12-29T15:07:32;9.57;;;2.00;;
6757;SDS011;3416;53.074;8.822;2022-12-29T15:10:03;21.05;;;4.95;;
6757;SDS011;3416;53.074;8.822;2022-12-29T15:12:36;7.55;;;2.88;;
6757;SDS011;3416;53.074;8.822;2022-12-29T15:15:18;4.13;;;1.70;;
6757;SDS011;3416;53.074;8.822;2022-12-29T15:17:47;4.70;;;1.90;;
6757;SDS011;3416;53.074;8.822;2022-12-29T15:20:17;9.50;;;3.35;;
6757;SDS011;3416;53.074;8.822;2022-12-29T15:22:53;15.45;;;3.83;;
6757;SDS011;3416;53.074;8.822;2022-12-29T15:25:22;2.88;;;1.85;;
6757;SDS011;3416;53.074;8.822;2022-12-29T15:27:50;4.10;;;2.05;;
6757;SDS011;3416;53.074;8.822;2022-12-29T15:30:19;5.15;;;1.70;;
6757;SDS011;3416;53.074;8.822;2022-12-29T15:32:47;10.63;;;4.80;;
6757;SDS011;3416;53.074;8.822;2022-12-29T15:35:22;4.40;;;2.28;;
6757;SDS011;3416;53.074;8.822;2022-12-29T15:37:57;4.13;;;1.88;;
6757;SDS011;3416;53.074;8.822;2022-12-29T15:40:26;7.70;;;2.25;;
6757;SDS011;3416;53.074;8.822;2022-12-29T15:42:59;10.65;;;2.13;;
6757;SDS011;3416;53.074;8.822;2022-12-29T15:45:46;6.05;;;1.77;;
6757;SDS011;3416;53.074;8.822;2022-12-29T15:48:17;9.38;;;2.95;;
6757;SDS011;3416;53.074;8.822;2022-12-29T15:50:46;9.60;;;2.20;;
6757;SDS011;3416;53.074;8.822;2022-12-29T15:53:17;8.25;;;2.28;;
6757;SDS011;3416;53.074;8.822;2022-12-29T15:55:49;9.60;;;2.63;;
6757;SDS011;3416;53.074;8.822;2022-12-29T15:58:19;10.13;;;3.42;;
6757;SDS011;3416;53.074;8.822;2022-12-29T16:00:49;4.03;;;2.45;;